Airfield :
LOGIN :

Register | Disclaimer

   EN    FR    IT 

 










Legend :    VFR   Marginal VFR   IFR   Intensive IFR   Very Intensive IFR
Visi :
Ceiling :
>= 8 km
>= 3000ft
5 to 8 km
1000 to 3000 ft
1500m to 5 km
500 to 1000 ft
800 to 1500m
200 to 500 ft
< 800m
< 200 ft
Symbols :   Thunderstorms  Fog  Heavy snow  Heavy precipitations  Wind > 20 kt
SIGMETs :     Misc.  Thunderstorms  Icing  Turbulence  Mountain Waves  Volcanic Ashes







- Airport Elevation : 220 ft
- IATA code : CWL
- Download approach charts


EGFF - Cardiff Rhoose

CURRENT METAR :
  • 220850Z AUTO 22016KT 9999 BKN024 BKN032 OVC041 14/11 Q0997

EXPIRED METARs :
  • 220820Z AUTO 22015KT 9999 OVC025 14/11 Q0997
  • 220750Z AUTO 22015G26KT 9999 BKN024 OVC049 14/11 Q0997
  • 220720Z AUTO 21015KT 9999 OVC048 14/11 Q0997
  • 220650Z AUTO 22015KT 9999 SCT023 BKN027 OVC049 14/11 Q0998
  • 220620Z AUTO 22014KT 9999 BKN023 14/11 Q0998

TAF TAF EGFF
Valid from the 22 at 06:00 until the 23 at 06:00 UTC


220456Z 2206/2306 23012KT 9999 SCT020
BECMG 2207/2210 20018G30KT
TEMPO 2208/2305 7000 RA BKN012
PROB30
TEMPO 2210/2224 20025G40KT 3000 +RA BKN005
BECMG 2303/2306 27020G35KT
ATIS : +44 1446 729 319
No reported NOTAMs for that airfield.
2 SIGMETs reported for the London FIR (EGTT) :
 
Severe turbulence
EGTT SIGMET 03 VALID 220803/221000 EGRR
EGTT LONDON FIR SEV TURB FCST WI N5100 W00800 - N5220 W00530 - N5318 W00530 - N5348 W00353 - N5139 W00412 - N5047 W00532 - N4920 W00534 - N4850 W00800 - N5100 W00800 SFC/FL060 MOV E 10KT INTSF=
Severe mountain waves
EGTT SIGMET 02 VALID 220600/221000 EGRR
EGTT LONDON FIR SEV MTW FCST WI N5500 E00045 - N5412 E00110 - N5047 W00255 - N5045 W00430 - N5310 W00414 - N5500 W00415 - N5500 E00045 FL040/180 STNR NC=



MET'MAP, your aeronautical weather chart ! - Copyright ORBIFLY December 2007 - Disclaimer

ORBIFLY MET'MAP TEAM :

Programming & Development : Alexandra Zaïnal
Concept & Development : Baudouin d'Aumeries
Co-Development & Prog : Marc-Olivier Méhu
Technical & hardware support : Manuel Goepfert

Contact : metmap@orbifly.com




SOURCES & CREDITS :

   NOAA